sensor_id;sensor_type;location;lat;lon;timestamp;P1;durP1;ratioP1;P2;durP2;ratioP2
25439;SDS011;13365;52.208;5.488;2023-11-18T00:01:48;46.13;;;20.85;;
25439;SDS011;13365;52.208;5.488;2023-11-18T00:04:13;42.55;;;19.48;;
25439;SDS011;13365;52.208;5.488;2023-11-18T00:06:42;45.97;;;21.00;;
25439;SDS011;13365;52.208;5.488;2023-11-18T00:09:11;49.17;;;21.20;;
25439;SDS011;13365;52.208;5.488;2023-11-18T00:11:38;39.67;;;19.95;;
25439;SDS011;13365;52.208;5.488;2023-11-18T00:14:04;38.90;;;20.45;;
25439;SDS011;13365;52.208;5.488;2023-11-18T00:16:30;46.47;;;20.58;;
25439;SDS011;13365;52.208;5.488;2023-11-18T00:18:55;48.42;;;20.23;;
25439;SDS011;13365;52.208;5.488;2023-11-18T00:21:21;41.13;;;20.50;;
25439;SDS011;13365;52.208;5.488;2023-11-18T00:23:47;45.10;;;19.88;;
25439;SDS011;13365;52.208;5.488;2023-11-18T00:26:13;39.90;;;18.38;;
25439;SDS011;13365;52.208;5.488;2023-11-18T00:28:39;41.65;;;20.30;;
25439;SDS011;13365;52.208;5.488;2023-11-18T00:31:04;43.03;;;19.88;;
25439;SDS011;13365;52.208;5.488;2023-11-18T00:33:31;49.40;;;20.05;;
25439;SDS011;13365;52.208;5.488;2023-11-18T00:35:57;42.97;;;20.02;;
25439;SDS011;13365;52.208;5.488;2023-11-18T00:38:22;44.30;;;20.38;;
25439;SDS011;13365;52.208;5.488;2023-11-18T00:40:48;40.90;;;19.77;;
25439;SDS011;13365;52.208;5.488;2023-11-18T00:43:14;41.97;;;19.83;;
25439;SDS011;13365;52.208;5.488;2023-11-18T00:45:39;39.47;;;20.15;;
25439;SDS011;13365;52.208;5.488;2023-11-18T00:48:06;42.35;;;20.48;;
25439;SDS011;13365;52.208;5.488;2023-11-18T00:50:31;44.38;;;20.40;;
25439;SDS011;13365;52.208;5.488;2023-11-18T00:52:58;43.17;;;20.23;;
25439;SDS011;13365;52.208;5.488;2023-11-18T00:55:23;43.22;;;19.58;;
25439;SDS011;13365;52.208;5.488;2023-11-18T00:57:49;38.53;;;18.42;;
25439;SDS011;13365;52.208;5.488;2023-11-18T01:00:14;41.05;;;19.48;;
25439;SDS011;13365;52.208;5.488;2023-11-18T01:02:46;41.30;;;19.33;;
25439;SDS011;13365;52.208;5.488;2023-11-18T01:05:15;43.95;;;19.30;;
25439;SDS011;13365;52.208;5.488;2023-11-18T01:07:41;39.17;;;20.27;;
25439;SDS011;13365;52.208;5.488;2023-11-18T01:10:08;39.90;;;19.50;;
25439;SDS011;13365;52.208;5.488;2023-11-18T01:12:34;42.55;;;19.42;;
25439;SDS011;13365;52.208;5.488;2023-11-18T01:15:00;44.50;;;19.92;;
25439;SDS011;13365;52.208;5.488;2023-11-18T01:17:27;40.53;;;19.60;;
25439;SDS011;13365;52.208;5.488;2023-11-18T01:19:54;42.00;;;20.70;;
25439;SDS011;13365;52.208;5.488;2023-11-18T01:22:19;37.75;;;20.88;;
25439;SDS011;13365;52.208;5.488;2023-11-18T01:24:46;43.30;;;19.15;;
25439;SDS011;13365;52.208;5.488;2023-11-18T01:27:12;39.20;;;18.90;;
25439;SDS011;13365;52.208;5.488;2023-11-18T01:29:37;44.60;;;20.05;;
25439;SDS011;13365;52.208;5.488;2023-11-18T01:32:06;44.92;;;20.98;;
25439;SDS011;13365;52.208;5.488;2023-11-18T01:34:37;40.13;;;21.08;;
25439;SDS011;13365;52.208;5.488;2023-11-18T01:37:04;44.78;;;21.23;;
25439;SDS011;13365;52.208;5.488;2023-11-18T01:39:32;52.45;;;20.42;;
25439;SDS011;13365;52.208;5.488;2023-11-18T01:41:58;49.13;;;20.40;;
25439;SDS011;13365;52.208;5.488;2023-11-18T01:44:24;53.80;;;21.80;;
25439;SDS011;13365;52.208;5.488;2023-11-18T01:46:50;38.08;;;19.48;;
25439;SDS011;13365;52.208;5.488;2023-11-18T01:49:16;44.55;;;20.08;;
25439;SDS011;13365;52.208;5.488;2023-11-18T01:51:43;53.30;;;20.95;;
25439;SDS011;13365;52.208;5.488;2023-11-18T01:54:11;44.17;;;19.73;;
25439;SDS011;13365;52.208;5.488;2023-11-18T01:56:41;49.60;;;19.17;;
25439;SDS011;13365;52.208;5.488;2023-11-18T01:59:09;41.03;;;19.75;;
25439;SDS011;13365;52.208;5.488;2023-11-18T02:01:35;42.28;;;19.00;;
25439;SDS011;13365;52.208;5.488;2023-11-18T02:04:01;37.97;;;20.27;;
25439;SDS011;13365;52.208;5.488;2023-11-18T02:06:27;40.30;;;19.77;;
25439;SDS011;13365;52.208;5.488;2023-11-18T02:08:53;39.00;;;19.95;;
25439;SDS011;13365;52.208;5.488;2023-11-18T02:11:33;35.47;;;18.35;;
25439;SDS011;13365;52.208;5.488;2023-11-18T02:14:06;38.92;;;19.95;;
25439;SDS011;13365;52.208;5.488;2023-11-18T02:16:36;39.45;;;19.65;;
25439;SDS011;13365;52.208;5.488;2023-11-18T02:19:03;39.50;;;19.55;;
25439;SDS011;13365;52.208;5.488;2023-11-18T02:21:39;37.88;;;19.52;;
25439;SDS011;13365;52.208;5.488;2023-11-18T02:24:05;39.97;;;19.48;;
25439;SDS011;13365;52.208;5.488;2023-11-18T02:26:31;37.45;;;20.08;;
25439;SDS011;13365;52.208;5.488;2023-11-18T02:28:57;45.58;;;19.92;;
25439;SDS011;13365;52.208;5.488;2023-11-18T02:31:25;41.47;;;20.38;;
25439;SDS011;13365;52.208;5.488;2023-11-18T02:34:00;42.42;;;21.27;;
25439;SDS011;13365;52.208;5.488;2023-11-18T02:36:34;39.38;;;19.85;;
25439;SDS011;13365;52.208;5.488;2023-11-18T02:39:04;41.92;;;20.88;;
25439;SDS011;13365;52.208;5.488;2023-11-18T02:41:36;40.47;;;20.92;;
25439;SDS011;13365;52.208;5.488;2023-11-18T02:44:04;48.70;;;21.95;;
25439;SDS011;13365;52.208;5.488;2023-11-18T02:46:35;37.23;;;19.83;;
25439;SDS011;13365;52.208;5.488;2023-11-18T02:49:01;43.28;;;21.52;;
25439;SDS011;13365;52.208;5.488;2023-11-18T02:51:28;43.88;;;21.50;;
25439;SDS011;13365;52.208;5.488;2023-11-18T02:53:56;44.25;;;19.95;;
25439;SDS011;13365;52.208;5.488;2023-11-18T02:56:22;42.85;;;20.77;;
25439;SDS011;13365;52.208;5.488;2023-11-18T02:58:47;42.25;;;21.90;;
25439;SDS011;13365;52.208;5.488;2023-11-18T03:01:13;42.28;;;21.10;;
25439;SDS011;13365;52.208;5.488;2023-11-18T03:03:38;39.58;;;20.38;;
25439;SDS011;13365;52.208;5.488;2023-11-18T03:06:04;39.17;;;21.20;;
25439;SDS011;13365;52.208;5.488;2023-11-18T03:08:31;42.20;;;21.35;;
25439;SDS011;13365;52.208;5.488;2023-11-18T03:10:56;46.85;;;22.05;;
25439;SDS011;13365;52.208;5.488;2023-11-18T03:13:23;39.67;;;21.30;;
25439;SDS011;13365;52.208;5.488;2023-11-18T03:15:49;49.72;;;21.88;;
25439;SDS011;13365;52.208;5.488;2023-11-18T03:18:15;45.33;;;21.05;;
25439;SDS011;13365;52.208;5.488;2023-11-18T03:20:41;45.75;;;21.58;;
25439;SDS011;13365;52.208;5.488;2023-11-18T03:23:06;47.15;;;21.67;;
25439;SDS011;13365;52.208;5.488;2023-11-18T03:25:34;38.25;;;19.67;;
25439;SDS011;13365;52.208;5.488;2023-11-18T03:28:00;45.78;;;20.80;;
25439;SDS011;13365;52.208;5.488;2023-11-18T03:30:26;43.95;;;21.17;;
25439;SDS011;13365;52.208;5.488;2023-11-18T03:32:54;42.67;;;21.20;;
25439;SDS011;13365;52.208;5.488;2023-11-18T03:35:19;42.10;;;20.52;;
25439;SDS011;13365;52.208;5.488;2023-11-18T03:37:45;42.55;;;21.00;;
25439;SDS011;13365;52.208;5.488;2023-11-18T03:40:11;43.92;;;22.10;;
25439;SDS011;13365;52.208;5.488;2023-11-18T03:42:39;44.22;;;21.42;;
25439;SDS011;13365;52.208;5.488;2023-11-18T03:45:07;40.80;;;21.88;;
25439;SDS011;13365;52.208;5.488;2023-11-18T03:47:34;40.58;;;21.08;;
25439;SDS011;13365;52.208;5.488;2023-11-18T03:50:00;49.38;;;21.55;;
25439;SDS011;13365;52.208;5.488;2023-11-18T03:52:26;49.60;;;22.35;;
25439;SDS011;13365;52.208;5.488;2023-11-18T03:54:52;44.80;;;21.70;;
25439;SDS011;13365;52.208;5.488;2023-11-18T03:57:20;45.70;;;22.73;;
25439;SDS011;13365;52.208;5.488;2023-11-18T03:59:45;51.58;;;23.00;;
25439;SDS011;13365;52.208;5.488;2023-11-18T04:02:11;48.13;;;21.83;;
25439;SDS011;13365;52.208;5.488;2023-11-18T04:04:37;50.50;;;23.70;;
25439;SDS011;13365;52.208;5.488;2023-11-18T04:07:04;45.22;;;22.77;;
25439;SDS011;13365;52.208;5.488;2023-11-18T04:09:30;48.92;;;23.00;;
25439;SDS011;13365;52.208;5.488;2023-11-18T04:11:55;57.42;;;23.52;;
25439;SDS011;13365;52.208;5.488;2023-11-18T04:14:21;44.60;;;22.05;;
25439;SDS011;13365;52.208;5.488;2023-11-18T04:16:47;51.20;;;22.52;;
25439;SDS011;13365;52.208;5.488;2023-11-18T04:19:14;41.53;;;21.25;;
25439;SDS011;13365;52.208;5.488;2023-11-18T04:21:40;48.65;;;23.15;;
25439;SDS011;13365;52.208;5.488;2023-11-18T04:24:05;46.60;;;21.98;;
25439;SDS011;13365;52.208;5.488;2023-11-18T04:26:31;48.13;;;22.90;;
25439;SDS011;13365;52.208;5.488;2023-11-18T04:28:57;51.78;;;22.83;;
25439;SDS011;13365;52.208;5.488;2023-11-18T04:31:25;52.05;;;21.92;;
25439;SDS011;13365;52.208;5.488;2023-11-18T04:33:51;47.05;;;23.17;;
25439;SDS011;13365;52.208;5.488;2023-11-18T04:36:16;50.78;;;22.35;;
25439;SDS011;13365;52.208;5.488;2023-11-18T04:38:44;52.88;;;23.58;;
25439;SDS011;13365;52.208;5.488;2023-11-18T04:41:09;45.22;;;22.58;;
25439;SDS011;13365;52.208;5.488;2023-11-18T04:43:35;50.17;;;21.95;;
25439;SDS011;13365;52.208;5.488;2023-11-18T04:46:00;46.80;;;22.77;;
25439;SDS011;13365;52.208;5.488;2023-11-18T04:48:26;45.92;;;22.40;;
25439;SDS011;13365;52.208;5.488;2023-11-18T04:50:51;47.45;;;22.67;;
25439;SDS011;13365;52.208;5.488;2023-11-18T04:53:17;47.55;;;22.50;;
25439;SDS011;13365;52.208;5.488;2023-11-18T04:55:42;47.42;;;23.30;;
25439;SDS011;13365;52.208;5.488;2023-11-18T04:58:08;50.60;;;23.90;;
25439;SDS011;13365;52.208;5.488;2023-11-18T05:00:37;51.00;;;24.25;;
25439;SDS011;13365;52.208;5.488;2023-11-18T05:03:04;51.28;;;23.98;;
25439;SDS011;13365;52.208;5.488;2023-11-18T05:05:30;46.90;;;23.83;;
25439;SDS011;13365;52.208;5.488;2023-11-18T05:07:56;46.75;;;23.33;;
25439;SDS011;13365;52.208;5.488;2023-11-18T05:10:22;55.50;;;25.38;;
25439;SDS011;13365;52.208;5.488;2023-11-18T05:12:48;47.92;;;24.58;;
25439;SDS011;13365;52.208;5.488;2023-11-18T05:15:20;51.60;;;23.65;;
25439;SDS011;13365;52.208;5.488;2023-11-18T05:17:49;60.92;;;24.63;;
25439;SDS011;13365;52.208;5.488;2023-11-18T05:20:18;54.78;;;24.08;;
25439;SDS011;13365;52.208;5.488;2023-11-18T05:22:45;56.55;;;24.45;;
25439;SDS011;13365;52.208;5.488;2023-11-18T05:25:10;51.70;;;26.00;;
25439;SDS011;13365;52.208;5.488;2023-11-18T05:27:36;56.67;;;25.40;;
25439;SDS011;13365;52.208;5.488;2023-11-18T05:30:05;52.97;;;25.88;;
25439;SDS011;13365;52.208;5.488;2023-11-18T05:32:34;59.45;;;27.27;;
25439;SDS011;13365;52.208;5.488;2023-11-18T05:35:00;56.58;;;26.50;;
25439;SDS011;13365;52.208;5.488;2023-11-18T05:37:26;53.70;;;25.35;;
25439;SDS011;13365;52.208;5.488;2023-11-18T05:39:54;57.83;;;25.38;;
25439;SDS011;13365;52.208;5.488;2023-11-18T05:42:24;51.87;;;24.17;;
25439;SDS011;13365;52.208;5.488;2023-11-18T05:44:51;56.40;;;24.75;;
25439;SDS011;13365;52.208;5.488;2023-11-18T05:47:23;56.03;;;25.25;;
25439;SDS011;13365;52.208;5.488;2023-11-18T05:49:50;61.28;;;26.77;;
25439;SDS011;13365;52.208;5.488;2023-11-18T05:52:16;52.78;;;25.40;;
25439;SDS011;13365;52.208;5.488;2023-11-18T05:54:42;52.92;;;24.52;;
25439;SDS011;13365;52.208;5.488;2023-11-18T05:57:07;53.63;;;24.52;;
25439;SDS011;13365;52.208;5.488;2023-11-18T05:59:33;47.95;;;23.73;;
25439;SDS011;13365;52.208;5.488;2023-11-18T06:01:59;54.72;;;25.33;;
25439;SDS011;13365;52.208;5.488;2023-11-18T06:04:24;50.63;;;23.60;;
25439;SDS011;13365;52.208;5.488;2023-11-18T06:06:50;49.53;;;23.88;;
25439;SDS011;13365;52.208;5.488;2023-11-18T06:09:16;57.30;;;24.05;;
25439;SDS011;13365;52.208;5.488;2023-11-18T06:11:46;49.65;;;23.45;;
25439;SDS011;13365;52.208;5.488;2023-11-18T06:14:12;46.05;;;22.05;;
25439;SDS011;13365;52.208;5.488;2023-11-18T06:16:37;54.85;;;23.42;;
25439;SDS011;13365;52.208;5.488;2023-11-18T06:19:04;51.88;;;22.98;;
25439;SDS011;13365;52.208;5.488;2023-11-18T06:21:30;53.85;;;23.13;;
25439;SDS011;13365;52.208;5.488;2023-11-18T06:23:56;55.35;;;24.55;;
25439;SDS011;13365;52.208;5.488;2023-11-18T06:26:22;50.47;;;23.35;;
25439;SDS011;13365;52.208;5.488;2023-11-18T06:28:52;53.05;;;22.25;;
25439;SDS011;13365;52.208;5.488;2023-11-18T06:31:18;54.83;;;22.60;;
25439;SDS011;13365;52.208;5.488;2023-11-18T06:33:48;45.05;;;22.48;;
25439;SDS011;13365;52.208;5.488;2023-11-18T06:38:43;48.60;;;21.13;;
25439;SDS011;13365;52.208;5.488;2023-11-18T06:41:09;46.67;;;21.77;;
25439;SDS011;13365;52.208;5.488;2023-11-18T06:43:39;42.38;;;19.88;;
25439;SDS011;13365;52.208;5.488;2023-11-18T06:46:21;43.15;;;20.98;;
25439;SDS011;13365;52.208;5.488;2023-11-18T06:48:54;39.13;;;19.63;;
25439;SDS011;13365;52.208;5.488;2023-11-18T06:51:20;47.13;;;19.70;;
25439;SDS011;13365;52.208;5.488;2023-11-18T06:53:49;40.60;;;19.42;;
25439;SDS011;13365;52.208;5.488;2023-11-18T06:56:21;42.63;;;18.10;;
25439;SDS011;13365;52.208;5.488;2023-11-18T06:58:47;45.38;;;19.77;;
25439;SDS011;13365;52.208;5.488;2023-11-18T07:01:13;35.25;;;18.40;;
25439;SDS011;13365;52.208;5.488;2023-11-18T07:03:40;44.53;;;18.20;;
25439;SDS011;13365;52.208;5.488;2023-11-18T07:06:18;41.25;;;18.55;;
25439;SDS011;13365;52.208;5.488;2023-11-18T07:08:51;39.58;;;18.10;;
25439;SDS011;13365;52.208;5.488;2023-11-18T07:11:18;42.65;;;19.58;;
25439;SDS011;13365;52.208;5.488;2023-11-18T07:13:46;36.58;;;18.35;;
25439;SDS011;13365;52.208;5.488;2023-11-18T07:16:12;41.00;;;18.27;;
25439;SDS011;13365;52.208;5.488;2023-11-18T07:18:39;36.05;;;17.20;;
25439;SDS011;13365;52.208;5.488;2023-11-18T07:21:06;39.20;;;17.70;;
25439;SDS011;13365;52.208;5.488;2023-11-18T07:23:34;36.75;;;16.92;;
25439;SDS011;13365;52.208;5.488;2023-11-18T07:26:00;40.08;;;16.70;;
25439;SDS011;13365;52.208;5.488;2023-11-18T07:28:26;36.80;;;17.80;;
25439;SDS011;13365;52.208;5.488;2023-11-18T07:30:52;34.03;;;16.35;;
25439;SDS011;13365;52.208;5.488;2023-11-18T07:33:19;33.17;;;15.98;;
25439;SDS011;13365;52.208;5.488;2023-11-18T07:35:46;39.58;;;17.10;;
25439;SDS011;13365;52.208;5.488;2023-11-18T07:38:15;32.95;;;16.65;;
25439;SDS011;13365;52.208;5.488;2023-11-18T07:40:41;35.13;;;17.40;;
25439;SDS011;13365;52.208;5.488;2023-11-18T07:43:10;36.55;;;16.83;;
25439;SDS011;13365;52.208;5.488;2023-11-18T07:45:37;37.33;;;17.25;;
25439;SDS011;13365;52.208;5.488;2023-11-18T07:48:04;44.45;;;17.08;;
25439;SDS011;13365;52.208;5.488;2023-11-18T07:50:35;34.75;;;16.95;;
25439;SDS011;13365;52.208;5.488;2023-11-18T07:53:01;40.47;;;17.52;;
25439;SDS011;13365;52.208;5.488;2023-11-18T07:55:27;35.88;;;16.38;;
25439;SDS011;13365;52.208;5.488;2023-11-18T07:57:53;31.67;;;15.70;;
25439;SDS011;13365;52.208;5.488;2023-11-18T08:00:19;31.40;;;16.88;;
25439;SDS011;13365;52.208;5.488;2023-11-18T08:02:44;32.08;;;15.73;;
25439;SDS011;13365;52.208;5.488;2023-11-18T08:05:10;35.53;;;16.58;;
25439;SDS011;13365;52.208;5.488;2023-11-18T08:07:39;33.58;;;15.43;;
25439;SDS011;13365;52.208;5.488;2023-11-18T08:10:05;29.17;;;15.50;;
25439;SDS011;13365;52.208;5.488;2023-11-18T08:12:32;32.75;;;16.35;;
25439;SDS011;13365;52.208;5.488;2023-11-18T08:14:57;33.60;;;16.33;;
25439;SDS011;13365;52.208;5.488;2023-11-18T08:17:24;34.15;;;16.20;;
25439;SDS011;13365;52.208;5.488;2023-11-18T08:19:51;32.08;;;14.82;;
25439;SDS011;13365;52.208;5.488;2023-11-18T08:22:20;30.67;;;15.90;;
25439;SDS011;13365;52.208;5.488;2023-11-18T08:24:48;35.38;;;15.73;;
25439;SDS011;13365;52.208;5.488;2023-11-18T08:27:14;28.45;;;15.27;;
25439;SDS011;13365;52.208;5.488;2023-11-18T08:29:40;32.45;;;15.77;;
25439;SDS011;13365;52.208;5.488;2023-11-18T08:32:06;31.10;;;14.88;;
25439;SDS011;13365;52.208;5.488;2023-11-18T08:34:34;30.67;;;15.52;;
25439;SDS011;13365;52.208;5.488;2023-11-18T08:37:02;42.63;;;16.25;;
25439;SDS011;13365;52.208;5.488;2023-11-18T08:39:28;30.63;;;15.43;;
25439;SDS011;13365;52.208;5.488;2023-11-18T08:41:54;32.30;;;15.43;;
25439;SDS011;13365;52.208;5.488;2023-11-18T08:44:19;30.70;;;15.13;;
25439;SDS011;13365;52.208;5.488;2023-11-18T08:46:45;35.22;;;16.95;;
25439;SDS011;13365;52.208;5.488;2023-11-18T08:49:11;30.85;;;15.65;;
25439;SDS011;13365;52.208;5.488;2023-11-18T08:51:37;24.90;;;13.93;;
25439;SDS011;13365;52.208;5.488;2023-11-18T08:54:03;25.50;;;14.60;;
25439;SDS011;13365;52.208;5.488;2023-11-18T08:56:47;28.85;;;14.75;;
25439;SDS011;13365;52.208;5.488;2023-11-18T08:59:19;26.17;;;13.10;;
25439;SDS011;13365;52.208;5.488;2023-11-18T09:01:52;24.60;;;13.77;;
25439;SDS011;13365;52.208;5.488;2023-11-18T09:04:24;33.90;;;14.20;;
25439;SDS011;13365;52.208;5.488;2023-11-18T09:06:53;23.88;;;13.02;;
25439;SDS011;13365;52.208;5.488;2023-11-18T09:09:23;24.75;;;12.15;;
25439;SDS011;13365;52.208;5.488;2023-11-18T09:11:55;29.70;;;13.25;;
25439;SDS011;13365;52.208;5.488;2023-11-18T09:14:23;27.83;;;11.75;;
25439;SDS011;13365;52.208;5.488;2023-11-18T09:16:49;23.17;;;12.05;;
25439;SDS011;13365;52.208;5.488;2023-11-18T09:19:15;27.92;;;12.23;;
25439;SDS011;13365;52.208;5.488;2023-11-18T09:21:42;25.25;;;13.55;;
25439;SDS011;13365;52.208;5.488;2023-11-18T09:24:08;23.30;;;11.93;;
25439;SDS011;13365;52.208;5.488;2023-11-18T09:26:37;28.77;;;11.75;;
25439;SDS011;13365;52.208;5.488;2023-11-18T09:29:03;24.58;;;12.15;;
25439;SDS011;13365;52.208;5.488;2023-11-18T09:31:28;28.70;;;11.80;;
25439;SDS011;13365;52.208;5.488;2023-11-18T09:33:57;20.25;;;11.30;;
25439;SDS011;13365;52.208;5.488;2023-11-18T09:36:23;23.58;;;12.18;;
25439;SDS011;13365;52.208;5.488;2023-11-18T09:38:48;28.58;;;11.68;;
25439;SDS011;13365;52.208;5.488;2023-11-18T09:41:18;21.67;;;10.90;;
25439;SDS011;13365;52.208;5.488;2023-11-18T09:43:45;22.35;;;10.95;;
25439;SDS011;13365;52.208;5.488;2023-11-18T09:51:26;25.98;;;10.80;;
25439;SDS011;13365;52.208;5.488;2023-11-18T09:53:55;18.30;;;10.23;;
25439;SDS011;13365;52.208;5.488;2023-11-18T09:56:35;20.63;;;10.80;;
25439;SDS011;13365;52.208;5.488;2023-11-18T09:59:54;18.42;;;10.07;;
25439;SDS011;13365;52.208;5.488;2023-11-18T10:02:35;18.83;;;10.27;;
25439;SDS011;13365;52.208;5.488;2023-11-18T10:05:06;19.38;;;9.85;;
25439;SDS011;13365;52.208;5.488;2023-11-18T10:07:37;21.30;;;9.82;;
25439;SDS011;13365;52.208;5.488;2023-11-18T10:10:07;22.40;;;10.98;;
25439;SDS011;13365;52.208;5.488;2023-11-18T10:12:40;26.88;;;10.93;;
25439;SDS011;13365;52.208;5.488;2023-11-18T10:15:16;21.52;;;10.90;;
25439;SDS011;13365;52.208;5.488;2023-11-18T10:17:44;27.40;;;11.45;;
25439;SDS011;13365;52.208;5.488;2023-11-18T10:20:22;19.15;;;10.90;;
25439;SDS011;13365;52.208;5.488;2023-11-18T10:23:05;20.55;;;9.85;;
25439;SDS011;13365;52.208;5.488;2023-11-18T10:25:34;20.23;;;10.48;;
25439;SDS011;13365;52.208;5.488;2023-11-18T10:28:01;22.05;;;10.10;;
25439;SDS011;13365;52.208;5.488;2023-11-18T10:30:27;25.42;;;9.25;;
25439;SDS011;13365;52.208;5.488;2023-11-18T10:32:59;23.27;;;9.80;;
25439;SDS011;13365;52.208;5.488;2023-11-18T10:35:34;20.73;;;9.43;;
25439;SDS011;13365;52.208;5.488;2023-11-18T10:38:04;29.13;;;10.05;;
25439;SDS011;13365;52.208;5.488;2023-11-18T10:40:32;25.60;;;9.82;;
25439;SDS011;13365;52.208;5.488;2023-11-18T10:43:05;25.23;;;9.10;;
25439;SDS011;13365;52.208;5.488;2023-11-18T10:45:34;17.00;;;9.40;;
25439;SDS011;13365;52.208;5.488;2023-11-18T10:48:05;18.83;;;8.80;;
25439;SDS011;13365;52.208;5.488;2023-11-18T10:50:31;23.95;;;9.98;;
25439;SDS011;13365;52.208;5.488;2023-11-18T10:52:58;19.67;;;9.05;;
25439;SDS011;13365;52.208;5.488;2023-11-18T10:55:34;21.50;;;9.13;;
25439;SDS011;13365;52.208;5.488;2023-11-18T10:58:03;20.38;;;8.35;;
25439;SDS011;13365;52.208;5.488;2023-11-18T11:00:47;18.98;;;9.02;;
25439;SDS011;13365;52.208;5.488;2023-11-18T11:03:20;15.90;;;8.95;;
25439;SDS011;13365;52.208;5.488;2023-11-18T11:05:48;17.52;;;8.68;;
25439;SDS011;13365;52.208;5.488;2023-11-18T11:08:19;22.92;;;8.90;;
25439;SDS011;13365;52.208;5.488;2023-11-18T11:10:45;17.80;;;9.32;;
25439;SDS011;13365;52.208;5.488;2023-11-18T11:13:14;20.88;;;7.82;;
25439;SDS011;13365;52.208;5.488;2023-11-18T11:15:43;17.15;;;8.27;;
25439;SDS011;13365;52.208;5.488;2023-11-18T11:18:10;15.43;;;7.50;;
25439;SDS011;13365;52.208;5.488;2023-11-18T11:23:27;20.02;;;8.70;;
25439;SDS011;13365;52.208;5.488;2023-11-18T11:28:45;26.65;;;9.10;;
25439;SDS011;13365;52.208;5.488;2023-11-18T11:31:30;18.75;;;8.75;;
25439;SDS011;13365;52.208;5.488;2023-11-18T11:34:04;18.73;;;9.30;;
25439;SDS011;13365;52.208;5.488;2023-11-18T11:36:41;14.75;;;9.35;;
25439;SDS011;13365;52.208;5.488;2023-11-18T11:39:11;21.27;;;9.73;;
25439;SDS011;13365;52.208;5.488;2023-11-18T11:41:44;24.65;;;9.57;;
25439;SDS011;13365;52.208;5.488;2023-11-18T11:44:15;16.88;;;8.90;;
25439;SDS011;13365;52.208;5.488;2023-11-18T11:46:44;21.50;;;10.18;;
25439;SDS011;13365;52.208;5.488;2023-11-18T11:49:17;15.50;;;8.63;;
25439;SDS011;13365;52.208;5.488;2023-11-18T11:54:22;15.25;;;8.45;;
25439;SDS011;13365;52.208;5.488;2023-11-18T11:56:55;21.10;;;9.05;;
25439;SDS011;13365;52.208;5.488;2023-11-18T12:02:23;19.40;;;8.13;;
25439;SDS011;13365;52.208;5.488;2023-11-18T12:04:57;15.18;;;8.35;;
25439;SDS011;13365;52.208;5.488;2023-11-18T12:07:26;14.32;;;8.52;;
25439;SDS011;13365;52.208;5.488;2023-11-18T12:09:56;15.85;;;7.97;;
25439;SDS011;13365;52.208;5.488;2023-11-18T12:12:26;14.40;;;7.43;;
25439;SDS011;13365;52.208;5.488;2023-11-18T12:14:53;16.80;;;7.25;;
25439;SDS011;13365;52.208;5.488;2023-11-18T12:17:25;17.73;;;7.47;;
25439;SDS011;13365;52.208;5.488;2023-11-18T12:22:30;13.48;;;6.68;;
25439;SDS011;13365;52.208;5.488;2023-11-18T12:25:30;14.20;;;6.55;;
25439;SDS011;13365;52.208;5.488;2023-11-18T12:27:57;18.33;;;7.78;;
25439;SDS011;13365;52.208;5.488;2023-11-18T12:33:00;16.95;;;6.57;;
25439;SDS011;13365;52.208;5.488;2023-11-18T12:40:53;20.05;;;6.75;;
25439;SDS011;13365;52.208;5.488;2023-11-18T12:49:02;12.68;;;5.80;;
25439;SDS011;13365;52.208;5.488;2023-11-18T12:51:28;9.75;;;6.40;;
25439;SDS011;13365;52.208;5.488;2023-11-18T12:53:56;11.25;;;5.15;;
25439;SDS011;13365;52.208;5.488;2023-11-18T12:56:23;14.25;;;5.63;;
25439;SDS011;13365;52.208;5.488;2023-11-18T12:58:50;11.50;;;5.72;;
25439;SDS011;13365;52.208;5.488;2023-11-18T13:01:16;14.18;;;5.75;;
25439;SDS011;13365;52.208;5.488;2023-11-18T13:03:42;12.70;;;5.32;;
25439;SDS011;13365;52.208;5.488;2023-11-18T13:06:09;11.40;;;5.40;;
25439;SDS011;13365;52.208;5.488;2023-11-18T13:08:36;18.38;;;5.80;;
25439;SDS011;13365;52.208;5.488;2023-11-18T13:11:03;11.35;;;4.53;;
25439;SDS011;13365;52.208;5.488;2023-11-18T13:13:33;10.73;;;5.13;;
25439;SDS011;13365;52.208;5.488;2023-11-18T13:15:59;9.88;;;5.10;;
25439;SDS011;13365;52.208;5.488;2023-11-18T13:18:25;10.80;;;4.82;;
25439;SDS011;13365;52.208;5.488;2023-11-18T13:20:57;19.60;;;5.38;;
25439;SDS011;13365;52.208;5.488;2023-11-18T13:23:26;13.50;;;4.75;;
25439;SDS011;13365;52.208;5.488;2023-11-18T13:25:55;11.98;;;4.47;;
25439;SDS011;13365;52.208;5.488;2023-11-18T13:28:25;12.13;;;4.50;;
25439;SDS011;13365;52.208;5.488;2023-11-18T13:30:51;13.90;;;4.55;;
25439;SDS011;13365;52.208;5.488;2023-11-18T13:33:17;10.32;;;4.70;;
25439;SDS011;13365;52.208;5.488;2023-11-18T13:35:42;11.05;;;4.30;;
25439;SDS011;13365;52.208;5.488;2023-11-18T13:38:08;7.15;;;3.85;;
25439;SDS011;13365;52.208;5.488;2023-11-18T13:40:45;10.27;;;4.70;;
25439;SDS011;13365;52.208;5.488;2023-11-18T13:43:14;12.07;;;4.38;;
25439;SDS011;13365;52.208;5.488;2023-11-18T13:45:40;8.65;;;4.78;;
25439;SDS011;13365;52.208;5.488;2023-11-18T13:48:07;8.02;;;4.55;;
25439;SDS011;13365;52.208;5.488;2023-11-18T13:50:37;11.50;;;5.28;;
25439;SDS011;13365;52.208;5.488;2023-11-18T13:53:03;11.55;;;5.95;;
25439;SDS011;13365;52.208;5.488;2023-11-18T13:55:30;15.05;;;6.07;;
25439;SDS011;13365;52.208;5.488;2023-11-18T13:57:57;16.67;;;7.22;;
25439;SDS011;13365;52.208;5.488;2023-11-18T14:00:27;14.38;;;7.22;;
25439;SDS011;13365;52.208;5.488;2023-11-18T14:02:53;19.15;;;7.30;;
25439;SDS011;13365;52.208;5.488;2023-11-18T14:05:21;14.35;;;7.30;;
25439;SDS011;13365;52.208;5.488;2023-11-18T14:07:49;12.50;;;6.32;;
25439;SDS011;13365;52.208;5.488;2023-11-18T14:10:16;17.58;;;6.35;;
25439;SDS011;13365;52.208;5.488;2023-11-18T14:13:03;14.98;;;6.30;;
25439;SDS011;13365;52.208;5.488;2023-11-18T14:15:36;9.27;;;5.22;;
25439;SDS011;13365;52.208;5.488;2023-11-18T14:18:03;8.18;;;4.88;;
25439;SDS011;13365;52.208;5.488;2023-11-18T14:20:34;6.40;;;4.50;;
25439;SDS011;13365;52.208;5.488;2023-11-18T14:23:00;10.38;;;5.18;;
25439;SDS011;13365;52.208;5.488;2023-11-18T14:25:28;5.15;;;3.67;;
25439;SDS011;13365;52.208;5.488;2023-11-18T14:27:54;9.35;;;4.07;;
25439;SDS011;13365;52.208;5.488;2023-11-18T14:30:20;5.57;;;3.15;;
25439;SDS011;13365;52.208;5.488;2023-11-18T14:32:49;5.78;;;3.58;;
25439;SDS011;13365;52.208;5.488;2023-11-18T14:35:15;4.57;;;2.63;;
25439;SDS011;13365;52.208;5.488;2023-11-18T14:37:42;9.13;;;3.50;;
25439;SDS011;13365;52.208;5.488;2023-11-18T14:40:10;5.95;;;3.00;;
25439;SDS011;13365;52.208;5.488;2023-11-18T14:42:40;5.90;;;2.75;;
25439;SDS011;13365;52.208;5.488;2023-11-18T14:45:15;4.43;;;2.72;;
25439;SDS011;13365;52.208;5.488;2023-11-18T14:47:41;5.63;;;2.80;;
25439;SDS011;13365;52.208;5.488;2023-11-18T14:50:12;4.75;;;2.85;;
25439;SDS011;13365;52.208;5.488;2023-11-18T14:52:43;7.30;;;2.88;;
25439;SDS011;13365;52.208;5.488;2023-11-18T14:55:10;3.92;;;2.80;;
25439;SDS011;13365;52.208;5.488;2023-11-18T14:57:38;5.45;;;2.83;;
25439;SDS011;13365;52.208;5.488;2023-11-18T15:00:04;5.40;;;2.45;;
25439;SDS011;13365;52.208;5.488;2023-11-18T15:02:32;4.80;;;2.00;;
25439;SDS011;13365;52.208;5.488;2023-11-18T15:04:59;4.00;;;2.58;;
25439;SDS011;13365;52.208;5.488;2023-11-18T15:07:25;4.43;;;2.53;;